Archival Weather

Chicago O'Hare International

Chicago, Illinois (KORD)

Report from: Saturday, March 18, 2023 1:06 PM CDT
Current time: Saturday, March 2, 2024 3:10 AM CST

Current weather – Weather history – Daily summaries
Weather forecast

Present weatherLight snow
Temperature-6.1°C (21.0°F)
Wind chill-13.9°C (7.1°F)
Dew point-12.2°C (10.0°F)
Winds 14 kts (7.2 m/s, 16.1 mph) West (280°)
Wind gusts 22 kts (11.3 m/s, 25.3 mph)
Visibility4 mi. (6.4 km)
Clouds Scattered clouds 2,000 ft. (610 m)
Ceiling: Broken clouds 3,100 ft. (945 m)
Overcast 4,000 ft. (1,219 m)
Altimeter30.03 in.Hg (1017 mB)
PrecipitiationTrace
Relative humidity62 %
Density altitude-2,699 ft. (-823 m)
Remarks System requires maintenance
Automated weather observing station with precipitation discriminator
Visibility east
Flight conditions Marginal Visual Meteorological Conditions
Raw dataKORD 181806Z 28014G22KT 4SM -SN SCT020 BKN031 OVC040 M06/M12 A3003 RMK AO2 VIS E 1 P0000 T10611122 $
An error has occurred. This application may no longer respond until reloaded. Reload 🗙